createdAt,value
2018-08-30T00:01:36.073Z,24.83
2018-08-30T00:04:05.281Z,18.10
2018-08-30T00:06:34.437Z,15.37
2018-08-30T00:09:04.892Z,15.70
2018-08-30T00:11:34.053Z,19.83
2018-08-30T00:14:03.494Z,25.20
2018-08-30T00:16:32.672Z,13.80
2018-08-30T00:19:01.877Z,15.70
2018-08-30T00:21:31.054Z,18.70
2018-08-30T00:24:00.226Z,22.87
2018-08-30T00:26:29.400Z,22.60
2018-08-30T00:28:58.513Z,19.23
2018-08-30T00:31:27.739Z,16.43
2018-08-30T00:33:56.894Z,13.17
2018-08-30T00:36:26.045Z,17.27
2018-08-30T00:38:55.255Z,20.33
2018-08-30T00:41:24.481Z,18.43
2018-08-30T00:43:53.596Z,26.23
2018-08-30T00:46:22.771Z,20.23
2018-08-30T00:48:52.012Z,20.63
2018-08-30T00:51:21.192Z,24.93
2018-08-30T00:53:50.408Z,21.83
2018-08-30T00:56:19.656Z,21.47
2018-08-30T00:58:48.878Z,19.73
2018-08-30T01:01:18.038Z,18.40
2018-08-30T01:03:47.165Z,19.07
2018-08-30T01:06:16.294Z,24.83
2018-08-30T01:08:45.453Z,18.27
2018-08-30T01:11:14.636Z,24.07
2018-08-30T01:13:43.777Z,26.03
2018-08-30T01:16:12.911Z,23.20
2018-08-30T01:18:42.156Z,22.20
2018-08-30T01:21:11.326Z,24.97
2018-08-30T01:23:40.463Z,24.60
2018-08-30T01:26:09.694Z,22.30
2018-08-30T01:28:38.840Z,25.63
2018-08-30T01:31:07.986Z,17.63
2018-08-30T01:33:37.131Z,23.20
2018-08-30T01:36:06.344Z,19.70
2018-08-30T01:38:35.496Z,23.37
2018-08-30T01:41:04.625Z,19.40
2018-08-30T01:43:33.766Z,21.43
2018-08-30T01:46:02.929Z,21.00
2018-08-30T01:48:32.046Z,17.87
2018-08-30T01:51:01.231Z,21.47
2018-08-30T01:53:30.441Z,21.87
2018-08-30T01:55:59.572Z,19.23
2018-08-30T01:58:28.727Z,17.17
2018-08-30T02:00:57.905Z,20.70
2018-08-30T02:03:27.175Z,19.33
2018-08-30T02:05:56.316Z,20.67
2018-08-30T02:08:25.413Z,19.03
2018-08-30T02:10:54.583Z,21.13
2018-08-30T02:13:23.766Z,18.70
2018-08-30T02:15:52.951Z,18.10
2018-08-30T02:18:22.103Z,20.90
2018-08-30T02:20:51.284Z,19.57
2018-08-30T02:23:20.468Z,17.77
2018-08-30T02:25:49.606Z,20.30
2018-08-30T02:28:18.793Z,20.87
2018-08-30T02:30:47.994Z,22.30
2018-08-30T02:33:18.132Z,25.77
2018-08-30T02:35:47.335Z,23.10
2018-08-30T02:38:16.540Z,27.30
2018-08-30T02:40:45.742Z,21.67
2018-08-30T02:43:14.890Z,20.67
2018-08-30T02:45:44.039Z,25.50
2018-08-30T02:48:13.209Z,21.03
2018-08-30T02:50:42.389Z,19.20
2018-08-30T02:53:11.794Z,27.00
2018-08-30T02:55:40.975Z,24.47
2018-08-30T02:58:10.107Z,18.43
2018-08-30T03:00:39.365Z,24.70
2018-08-30T03:03:08.508Z,28.07
2018-08-30T03:05:37.822Z,26.60
2018-08-30T03:08:07.208Z,29.30
2018-08-30T03:10:36.439Z,29.23
2018-08-30T03:13:05.649Z,31.97
2018-08-30T03:15:34.806Z,38.40
2018-08-30T03:18:04.025Z,36.87
2018-08-30T03:20:33.202Z,37.20
2018-08-30T03:23:02.428Z,34.00
2018-08-30T03:25:31.593Z,33.77
2018-08-30T03:28:00.789Z,32.50
2018-08-30T03:30:29.985Z,31.40
2018-08-30T03:32:59.211Z,32.63
2018-08-30T03:35:28.343Z,35.00
2018-08-30T03:37:57.505Z,36.63
2018-08-30T03:40:26.658Z,43.57
2018-08-30T03:42:55.896Z,36.10
2018-08-30T03:45:25.012Z,39.77
2018-08-30T03:47:54.158Z,44.07
2018-08-30T03:50:23.302Z,55.90
2018-08-30T03:52:52.489Z,67.80
2018-08-30T03:55:21.717Z,68.37
2018-08-30T03:57:50.866Z,78.47
2018-08-30T04:00:20.074Z,76.53
2018-08-30T04:02:49.276Z,76.83
2018-08-30T04:05:18.601Z,73.10
2018-08-30T04:07:47.752Z,73.80
2018-08-30T04:10:16.929Z,78.30
2018-08-30T04:12:46.029Z,76.83
2018-08-30T04:15:15.234Z,72.63
2018-08-30T04:17:44.474Z,88.67
2018-08-30T04:20:13.610Z,85.90
2018-08-30T04:22:42.851Z,75.60
2018-08-30T04:25:12.044Z,92.10
2018-08-30T04:27:41.273Z,83.83
2018-08-30T04:30:10.490Z,78.40
2018-08-30T04:32:39.698Z,82.37
2018-08-30T04:35:08.849Z,74.47
2018-08-30T04:37:37.977Z,89.10
2018-08-30T04:40:07.240Z,84.43
2018-08-30T04:42:36.431Z,79.23
2018-08-30T04:45:06.108Z,77.60
2018-08-30T04:47:35.269Z,70.83
2018-08-30T04:50:04.523Z,66.83
2018-08-30T04:52:33.614Z,76.53
2018-08-30T04:55:02.754Z,81.47
2018-08-30T04:57:31.889Z,71.67
2018-08-30T05:00:01.024Z,71.60
2018-08-30T05:02:30.147Z,68.20
2018-08-30T05:04:59.259Z,68.87
2018-08-30T05:07:28.421Z,67.03
2018-08-30T05:09:57.610Z,79.97
2018-08-30T05:12:26.795Z,61.57
2018-08-30T05:14:55.947Z,66.00
2018-08-30T05:17:25.122Z,66.97
2018-08-30T05:19:54.249Z,67.10
2018-08-30T05:22:23.411Z,63.80
2018-08-30T05:24:52.573Z,70.47
2018-08-30T05:27:21.771Z,74.13
2018-08-30T05:29:51.020Z,63.27
2018-08-30T05:32:20.077Z,72.03
2018-08-30T05:34:49.226Z,62.70
2018-08-30T05:37:18.437Z,71.80
2018-08-30T05:39:47.664Z,61.03
2018-08-30T05:42:16.902Z,60.73
2018-08-30T05:44:46.161Z,67.00
2018-08-30T05:47:15.276Z,63.40
2018-08-30T05:49:44.432Z,61.97
2018-08-30T05:52:13.542Z,55.83
2018-08-30T05:54:42.781Z,67.33
2018-08-30T05:57:11.895Z,60.63
2018-08-30T05:59:41.930Z,63.17
2018-08-30T06:02:11.065Z,60.83
2018-08-30T06:04:40.321Z,66.67
2018-08-30T06:07:09.533Z,67.43
2018-08-30T06:09:38.634Z,61.17
2018-08-30T06:12:07.825Z,57.37
2018-08-30T06:14:36.952Z,56.60
2018-08-30T06:17:06.168Z,55.53
2018-08-30T06:19:35.322Z,52.90
2018-08-30T06:22:04.467Z,58.43
2018-08-30T06:24:33.586Z,54.57
2018-08-30T06:27:03.220Z,56.40
2018-08-30T06:29:32.446Z,52.77
2018-08-30T06:32:02.178Z,52.63
2018-08-30T06:34:31.717Z,48.83
2018-08-30T06:37:00.928Z,42.87
2018-08-30T06:39:30.097Z,49.90
2018-08-30T06:41:59.277Z,46.43
2018-08-30T06:44:28.515Z,39.63
2018-08-30T06:46:57.645Z,39.07
2018-08-30T06:49:26.745Z,39.93
2018-08-30T06:51:56.049Z,39.40
2018-08-30T06:54:25.188Z,38.70
2018-08-30T06:56:54.340Z,39.30
2018-08-30T06:59:24.603Z,35.73
2018-08-30T07:01:53.718Z,35.53
2018-08-30T07:04:22.994Z,32.77
2018-08-30T07:06:52.015Z,31.97
2018-08-30T07:09:21.240Z,34.40
2018-08-30T07:11:50.380Z,36.53
2018-08-30T07:14:19.523Z,40.90
2018-08-30T07:16:48.692Z,38.80
2018-08-30T07:19:17.928Z,32.90
2018-08-30T07:21:47.070Z,32.47
2018-08-30T07:24:16.165Z,32.70
2018-08-30T07:26:45.358Z,32.20
2018-08-30T07:29:14.477Z,32.90
2018-08-30T07:34:38.191Z,33.20
2018-08-30T07:37:13.244Z,28.83
2018-08-30T07:39:46.274Z,31.10
2018-08-30T07:42:16.254Z,31.90
2018-08-30T07:44:45.410Z,44.60
2018-08-30T07:47:14.605Z,31.37
2018-08-30T07:49:43.785Z,37.83
2018-08-30T07:52:12.969Z,32.33
2018-08-30T07:54:42.177Z,30.83
2018-08-30T07:57:11.303Z,32.70
2018-08-30T07:59:40.448Z,32.23
2018-08-30T08:02:09.690Z,32.10
2018-08-30T08:04:38.876Z,32.40
2018-08-30T08:07:08.039Z,29.70
2018-08-30T08:09:37.226Z,32.53
2018-08-30T08:12:06.519Z,26.87
2018-08-30T08:14:35.619Z,25.63
2018-08-30T08:17:04.917Z,34.27
2018-08-30T08:19:34.272Z,30.30
2018-08-30T08:22:03.477Z,28.73
2018-08-30T08:24:32.636Z,32.00
2018-08-30T08:27:01.750Z,30.60
2018-08-30T08:29:31.004Z,25.57
2018-08-30T08:32:00.136Z,30.77
2018-08-30T08:34:29.221Z,26.93
2018-08-30T08:36:58.370Z,25.47
2018-08-30T08:39:27.529Z,25.27
2018-08-30T08:41:56.721Z,22.90
2018-08-30T08:44:26.095Z,23.60
2018-08-30T08:46:55.226Z,24.47
2018-08-30T08:49:24.390Z,24.43
2018-08-30T08:51:53.568Z,27.00
2018-08-30T08:54:22.713Z,27.40
2018-08-30T08:56:51.885Z,26.00
2018-08-30T08:59:21.035Z,21.87
2018-08-30T09:01:50.284Z,23.70
2018-08-30T09:04:19.382Z,25.17
2018-08-30T09:06:48.503Z,26.03
2018-08-30T09:09:17.681Z,24.67
2018-08-30T09:11:46.809Z,27.03
2018-08-30T09:14:15.950Z,25.43
2018-08-30T09:16:45.115Z,31.60
2018-08-30T09:19:14.262Z,23.13
2018-08-30T09:21:43.403Z,25.83
2018-08-30T09:24:12.540Z,26.77
2018-08-30T09:26:41.685Z,32.60
2018-08-30T09:29:10.743Z,26.40
2018-08-30T09:31:39.967Z,25.50
2018-08-30T09:34:09.095Z,26.40
2018-08-30T09:36:38.221Z,21.87
2018-08-30T09:39:09.089Z,20.77
2018-08-30T09:41:38.263Z,19.73
2018-08-30T09:44:07.411Z,24.43
2018-08-30T09:46:36.555Z,20.03
2018-08-30T09:49:06.191Z,12.30
2018-08-30T09:51:35.499Z,21.87
2018-08-30T09:54:04.601Z,19.00
2018-08-30T09:56:33.819Z,11.80
2018-08-30T09:59:09.712Z,15.80
2018-08-30T10:01:50.514Z,10.80
2018-08-30T10:04:20.507Z,11.63
2018-08-30T10:06:49.619Z,9.83
2018-08-30T10:09:18.903Z,7.63
2018-08-30T10:11:48.029Z,9.23
2018-08-30T10:14:17.179Z,11.90
2018-08-30T10:16:46.398Z,12.90
2018-08-30T10:19:15.732Z,13.90
2018-08-30T10:21:44.983Z,15.77
2018-08-30T10:24:14.149Z,22.00
2018-08-30T10:26:43.307Z,21.37
2018-08-30T10:29:12.517Z,23.90
2018-08-30T10:31:41.862Z,35.40
2018-08-30T10:34:10.870Z,26.23
2018-08-30T10:36:40.006Z,27.93
2018-08-30T10:39:09.412Z,27.67
2018-08-30T10:41:38.527Z,35.33
2018-08-30T10:44:07.716Z,24.10
2018-08-30T10:46:36.886Z,24.60
2018-08-30T10:49:06.155Z,25.27
2018-08-30T10:51:35.337Z,24.00
2018-08-30T10:54:04.460Z,23.53
2018-08-30T10:56:33.558Z,26.83
2018-08-30T10:59:02.696Z,27.13
2018-08-30T11:01:31.847Z,30.93
2018-08-30T11:04:01.204Z,28.33
2018-08-30T11:06:30.295Z,31.77
2018-08-30T11:08:59.487Z,32.27
2018-08-30T11:11:28.651Z,29.40
2018-08-30T11:13:57.790Z,31.00
2018-08-30T11:16:26.904Z,33.10
2018-08-30T11:18:56.039Z,31.33
2018-08-30T11:21:25.266Z,27.57
2018-08-30T11:23:54.345Z,24.17
2018-08-30T11:26:23.501Z,28.73
2018-08-30T11:28:52.617Z,29.10
2018-08-30T11:31:21.831Z,26.60
2018-08-30T11:33:50.905Z,26.63
2018-08-30T11:36:20.073Z,26.70
2018-08-30T11:38:49.254Z,25.00
2018-08-30T11:41:18.338Z,25.97
2018-08-30T11:43:47.448Z,23.70
2018-08-30T11:46:16.538Z,23.43
2018-08-30T11:48:45.759Z,24.60
2018-08-30T11:51:16.605Z,26.43
2018-08-30T11:53:46.305Z,28.93
2018-08-30T11:56:15.434Z,26.13
2018-08-30T11:58:44.544Z,20.63
2018-08-30T12:01:13.646Z,24.30
2018-08-30T12:03:45.283Z,21.90
2018-08-30T12:06:14.374Z,23.10
2018-08-30T12:08:43.611Z,23.80
2018-08-30T12:11:13.258Z,20.73
2018-08-30T12:13:42.371Z,19.40
2018-08-30T12:16:11.482Z,18.57
2018-08-30T12:18:40.659Z,23.83
2018-08-30T12:21:09.796Z,20.20
2018-08-30T12:23:38.976Z,19.17
2018-08-30T12:26:08.178Z,18.80
2018-08-30T12:28:38.147Z,20.90
2018-08-30T12:31:07.314Z,16.63
2018-08-30T12:33:36.464Z,25.33
2018-08-30T12:36:06.000Z,21.17
2018-08-30T12:38:35.079Z,21.77
2018-08-30T12:41:04.245Z,23.70
2018-08-30T12:43:33.512Z,18.40
2018-08-30T12:46:02.521Z,16.60
2018-08-30T12:48:31.891Z,20.80
2018-08-30T12:51:01.171Z,20.87
2018-08-30T12:53:30.306Z,19.10
2018-08-30T12:55:59.423Z,17.87
2018-08-30T12:58:28.632Z,22.57
2018-08-30T13:00:57.780Z,15.10
2018-08-30T13:03:26.860Z,24.17
2018-08-30T13:05:56.141Z,16.30
2018-08-30T13:08:25.331Z,17.30
2018-08-30T13:10:54.628Z,16.60
2018-08-30T13:13:23.850Z,24.10
2018-08-30T13:15:59.263Z,18.67
2018-08-30T13:18:28.427Z,20.20
2018-08-30T13:20:57.706Z,18.33
2018-08-30T13:23:26.802Z,19.70
2018-08-30T13:25:55.954Z,23.10
2018-08-30T13:28:25.071Z,23.30
2018-08-30T13:30:54.391Z,16.27
2018-08-30T13:33:23.621Z,22.17
2018-08-30T13:35:52.997Z,19.03
2018-08-30T13:38:22.281Z,17.73
2018-08-30T13:40:51.723Z,18.83
2018-08-30T13:43:20.670Z,14.07
2018-08-30T13:45:49.793Z,11.20
2018-08-30T13:48:18.867Z,16.67
2018-08-30T13:50:48.091Z,15.40
2018-08-30T13:53:17.258Z,12.10
2018-08-30T13:55:46.415Z,11.40
2018-08-30T13:58:15.845Z,15.00
2018-08-30T14:00:45.244Z,12.13
2018-08-30T14:03:13.940Z,9.57
2018-08-30T14:05:43.229Z,17.03
2018-08-30T14:08:12.217Z,12.33
2018-08-30T14:10:41.451Z,10.80
2018-08-30T14:13:10.644Z,10.87
2018-08-30T14:15:39.453Z,15.60
2018-08-30T14:18:08.741Z,10.20
2018-08-30T14:20:37.936Z,14.87
2018-08-30T14:23:07.139Z,11.30
2018-08-30T14:25:36.321Z,16.17
2018-08-30T14:28:05.484Z,10.40
2018-08-30T14:30:34.648Z,15.00
2018-08-30T14:33:03.874Z,15.23
2018-08-30T14:35:33.108Z,13.40
2018-08-30T14:38:02.334Z,16.00
2018-08-30T14:40:31.565Z,16.50
2018-08-30T14:43:00.659Z,14.33
2018-08-30T14:45:29.876Z,14.47
2018-08-30T14:47:59.076Z,14.80
2018-08-30T14:50:28.289Z,13.20
2018-08-30T14:52:57.549Z,18.50
2018-08-30T14:55:26.767Z,16.63
2018-08-30T14:57:56.111Z,12.60
2018-08-30T15:00:25.371Z,14.37
2018-08-30T15:02:54.534Z,12.90
2018-08-30T15:05:23.866Z,17.67
2018-08-30T15:07:52.980Z,16.40
2018-08-30T15:10:22.159Z,14.73
2018-08-30T15:12:51.396Z,14.77
2018-08-30T15:15:20.665Z,16.93
2018-08-30T15:17:49.849Z,18.80
2018-08-30T15:20:19.079Z,14.13
2018-08-30T15:22:48.310Z,18.60
2018-08-30T15:25:17.842Z,13.83
2018-08-30T15:27:47.028Z,13.53
2018-08-30T15:30:16.247Z,12.90
2018-08-30T15:32:45.371Z,13.87
2018-08-30T15:35:14.689Z,11.53
2018-08-30T15:37:43.914Z,12.70
2018-08-30T15:40:13.177Z,9.70
2018-08-30T15:42:42.417Z,12.73
2018-08-30T15:45:11.559Z,8.87
2018-08-30T15:47:40.714Z,10.63
2018-08-30T15:50:09.836Z,13.17
2018-08-30T15:52:45.801Z,8.00
2018-08-30T15:55:15.040Z,10.73
2018-08-30T15:57:44.280Z,7.63
2018-08-30T16:00:15.798Z,9.30
2018-08-30T16:02:45.804Z,11.40
2018-08-30T16:05:14.905Z,8.57
2018-08-30T16:07:44.547Z,12.17
2018-08-30T16:10:14.794Z,8.20
2018-08-30T16:12:44.351Z,18.73
2018-08-30T16:15:13.854Z,17.03
2018-08-30T16:17:43.096Z,10.77
2018-08-30T16:20:12.291Z,12.10
2018-08-30T16:23:49.256Z,18.00
2018-08-30T16:26:18.445Z,11.63
2018-08-30T16:28:47.569Z,12.87
2018-08-30T16:31:16.825Z,11.67
2018-08-30T16:33:45.892Z,10.87
2018-08-30T16:36:15.054Z,9.80
2018-08-30T16:38:44.257Z,11.10
2018-08-30T16:41:13.424Z,14.60
2018-08-30T16:43:42.625Z,9.03
2018-08-30T16:46:11.820Z,8.73
2018-08-30T16:48:41.051Z,8.77
2018-08-30T16:51:10.237Z,8.17
2018-08-30T16:53:39.457Z,10.10
2018-08-30T16:56:08.637Z,8.60
2018-08-30T16:58:37.795Z,10.93
2018-08-30T17:01:06.963Z,8.50
2018-08-30T17:03:36.178Z,9.73
2018-08-30T17:06:05.342Z,8.27
2018-08-30T17:08:34.565Z,8.03
2018-08-30T17:11:10.026Z,13.23
2018-08-30T17:13:39.331Z,9.83
2018-08-30T17:16:08.616Z,14.50
2018-08-30T17:18:38.497Z,11.23
2018-08-30T17:21:07.622Z,11.37
2018-08-30T17:23:36.784Z,8.83
2018-08-30T17:26:06.480Z,10.13
2018-08-30T17:28:35.676Z,9.93
2018-08-30T17:31:04.902Z,8.70
2018-08-30T17:33:34.006Z,8.77
2018-08-30T17:36:03.240Z,9.50
2018-08-30T17:38:32.376Z,14.10
2018-08-30T17:41:01.591Z,8.50
2018-08-30T17:43:30.707Z,13.50
2018-08-30T17:45:59.866Z,9.80
2018-08-30T17:48:29.065Z,11.17
2018-08-30T17:50:58.252Z,11.13
2018-08-30T17:53:27.369Z,10.40
2018-08-30T17:55:56.626Z,9.60
2018-08-30T17:58:25.700Z,9.20
2018-08-30T18:00:54.933Z,12.83
2018-08-30T18:03:24.223Z,9.80
2018-08-30T18:05:53.394Z,10.43
2018-08-30T18:08:22.682Z,11.00
2018-08-30T18:10:51.838Z,9.87
2018-08-30T18:13:21.013Z,12.60
2018-08-30T18:15:50.297Z,11.53
2018-08-30T18:18:19.651Z,20.67
2018-08-30T18:20:48.877Z,13.70
2018-08-30T18:23:18.077Z,12.10
2018-08-30T18:25:47.289Z,11.30
2018-08-30T18:28:16.566Z,14.97
2018-08-30T18:30:45.726Z,10.80
2018-08-30T18:33:14.898Z,8.60
2018-08-30T18:35:44.113Z,15.50
2018-08-30T18:38:13.279Z,8.83
2018-08-30T18:40:42.469Z,11.33
2018-08-30T18:43:11.711Z,20.90
2018-08-30T18:45:40.900Z,17.77
2018-08-30T18:48:10.179Z,11.80
2018-08-30T18:50:39.372Z,15.30
2018-08-30T18:53:08.622Z,11.97
2018-08-30T18:55:37.835Z,18.70
2018-08-30T18:58:07.013Z,12.77
2018-08-30T19:00:36.158Z,14.27
2018-08-30T19:03:05.362Z,10.27
2018-08-30T19:05:34.498Z,15.27
2018-08-30T19:08:03.717Z,22.20
2018-08-30T19:10:32.890Z,12.20
2018-08-30T19:13:02.068Z,27.80
2018-08-30T19:15:38.332Z,12.33
2018-08-30T19:18:12.995Z,15.23
2018-08-30T19:20:42.347Z,13.97
2018-08-30T19:23:11.864Z,16.90
2018-08-30T19:25:41.048Z,17.47
2018-08-30T19:28:10.155Z,13.00
2018-08-30T19:30:39.339Z,19.73
2018-08-30T19:33:08.571Z,12.80
2018-08-30T19:35:43.104Z,10.10
2018-08-30T19:38:12.264Z,16.47
2018-08-30T19:40:46.914Z,11.20
2018-08-30T19:43:16.074Z,13.60
2018-08-30T19:45:45.223Z,14.50
2018-08-30T19:48:14.357Z,14.47
2018-08-30T19:50:43.553Z,17.23
2018-08-30T19:53:13.277Z,15.30
2018-08-30T19:55:42.480Z,15.27
2018-08-30T19:58:11.664Z,14.53
2018-08-30T20:00:40.950Z,11.30
2018-08-30T20:03:10.178Z,14.00
2018-08-30T20:05:39.607Z,16.23
2018-08-30T20:08:09.031Z,17.80
2018-08-30T20:10:38.440Z,12.97
2018-08-30T20:13:08.739Z,12.83
2018-08-30T20:15:38.145Z,21.87
2018-08-30T20:18:07.227Z,11.27
2018-08-30T20:20:36.480Z,11.90
2018-08-30T20:23:05.765Z,17.37
2018-08-30T20:25:34.971Z,12.33
2018-08-30T20:28:04.151Z,10.73
2018-08-30T20:30:33.288Z,12.83
2018-08-30T20:33:02.540Z,11.70
2018-08-30T20:35:31.721Z,10.20
2018-08-30T20:38:00.849Z,15.10
2018-08-30T20:40:29.933Z,21.87
2018-08-30T20:42:59.167Z,17.57
2018-08-30T20:45:28.369Z,23.43
2018-08-30T20:47:57.582Z,15.80
2018-08-30T20:50:26.737Z,13.90
2018-08-30T20:52:55.897Z,11.10
2018-08-30T20:55:25.053Z,12.93
2018-08-30T20:57:54.204Z,16.43
2018-08-30T21:00:23.447Z,13.30
2018-08-30T21:02:52.490Z,8.47
2018-08-30T21:05:21.713Z,20.57
2018-08-30T21:07:50.851Z,13.60
2018-08-30T21:10:20.044Z,18.23
2018-08-30T21:12:49.206Z,11.13
2018-08-30T21:15:18.358Z,13.77
2018-08-30T21:17:47.599Z,12.60
2018-08-30T21:20:16.890Z,17.97
2018-08-30T21:22:46.093Z,13.10
2018-08-30T21:25:15.235Z,22.60
2018-08-30T21:27:44.368Z,13.53
2018-08-30T21:30:13.488Z,26.60
2018-08-30T21:32:42.632Z,16.83
2018-08-30T21:35:11.820Z,20.77
2018-08-30T21:37:40.895Z,17.23
2018-08-30T21:40:09.989Z,14.87
2018-08-30T21:42:39.128Z,16.73
2018-08-30T21:45:08.200Z,14.20
2018-08-30T21:47:37.344Z,15.70
2018-08-30T21:50:06.925Z,14.27
2018-08-30T21:52:36.010Z,16.87
2018-08-30T21:55:05.215Z,19.23
2018-08-30T21:57:34.323Z,21.93
2018-08-30T22:00:03.472Z,24.27
2018-08-30T22:02:32.615Z,14.43
2018-08-30T22:05:01.745Z,18.83
2018-08-30T22:07:30.946Z,16.90
2018-08-30T22:10:00.068Z,19.07
2018-08-30T22:12:29.254Z,16.63
2018-08-30T22:14:58.359Z,13.00
2018-08-30T22:17:27.515Z,14.30
2018-08-30T22:19:56.611Z,16.63
2018-08-30T22:22:25.834Z,18.07
2018-08-30T22:24:55.016Z,9.70
2018-08-30T22:27:24.120Z,18.80
2018-08-30T22:29:53.292Z,16.73
2018-08-30T22:32:22.430Z,12.53
2018-08-30T22:34:51.546Z,17.80
2018-08-30T22:37:20.671Z,17.27
2018-08-30T22:39:49.877Z,16.07
2018-08-30T22:42:19.065Z,15.60
2018-08-30T22:44:48.235Z,11.80
2018-08-30T22:47:17.487Z,17.30
2018-08-30T22:49:46.948Z,19.67
2018-08-30T22:52:16.081Z,22.73
2018-08-30T22:54:45.236Z,16.13
2018-08-30T22:57:14.428Z,19.87
2018-08-30T22:59:43.551Z,19.23
2018-08-30T23:02:12.673Z,12.63
2018-08-30T23:04:41.792Z,25.33
2018-08-30T23:07:10.942Z,13.87
2018-08-30T23:09:40.172Z,12.77
2018-08-30T23:12:09.292Z,15.73
2018-08-30T23:14:38.355Z,26.73
2018-08-30T23:17:07.523Z,22.63
2018-08-30T23:19:36.918Z,21.67
2018-08-30T23:22:06.207Z,14.17
2018-08-30T23:24:35.318Z,12.40
2018-08-30T23:27:04.491Z,27.23
2018-08-30T23:29:33.613Z,12.90
2018-08-30T23:32:02.746Z,17.20
2018-08-30T23:34:31.897Z,19.67
2018-08-30T23:37:01.017Z,16.53
2018-08-30T23:39:30.158Z,13.50
2018-08-30T23:41:59.361Z,19.60
2018-08-30T23:44:28.478Z,15.30
2018-08-30T23:46:57.584Z,15.40
2018-08-30T23:49:26.723Z,12.60
2018-08-30T23:51:55.825Z,10.73
2018-08-30T23:54:24.978Z,16.93
2018-08-30T23:56:54.146Z,15.00
2018-08-30T23:59:40.508Z,20.27
